createdAt,value
2023-03-12T00:00:18.989Z,69.10
2023-03-12T00:02:47.158Z,68.90
2023-03-12T00:05:17.024Z,67.80
2023-03-12T00:07:45.472Z,68.00
2023-03-12T00:10:13.735Z,68.00
2023-03-12T00:12:42.087Z,67.80
2023-03-12T00:15:10.847Z,68.20
2023-03-12T00:17:39.257Z,68.60
2023-03-12T00:20:07.885Z,68.60
2023-03-12T00:22:37.751Z,67.30
2023-03-12T00:25:06.365Z,67.90
2023-03-12T00:27:34.978Z,69.90
2023-03-12T00:30:03.259Z,70.90
2023-03-12T00:32:33.465Z,69.50
2023-03-12T00:35:01.736Z,68.80
2023-03-12T00:37:30.740Z,69.00
2023-03-12T00:40:01.660Z,69.90
2023-03-12T00:42:30.650Z,69.90
2023-03-12T00:44:58.899Z,70.20
2023-03-12T00:47:27.577Z,70.10
2023-03-12T00:49:55.684Z,69.80
2023-03-12T00:52:24.301Z,69.60
2023-03-12T00:54:52.365Z,69.70
2023-03-12T00:57:22.177Z,70.30
2023-03-12T00:59:50.441Z,69.90
2023-03-12T01:02:18.469Z,71.10
2023-03-12T01:04:46.990Z,71.60
2023-03-12T01:07:15.087Z,71.80
2023-03-12T01:09:43.827Z,72.30
2023-03-12T01:12:13.249Z,71.80
2023-03-12T01:14:43.510Z,72.00
2023-03-12T01:17:11.680Z,72.40
2023-03-12T01:19:39.941Z,71.30
2023-03-12T01:22:08.068Z,71.90
2023-03-12T01:24:36.379Z,74.10
2023-03-12T01:27:06.010Z,73.60
2023-03-12T01:29:34.678Z,74.30
2023-03-12T01:32:04.589Z,74.40
2023-03-12T01:34:33.497Z,73.00
2023-03-12T01:37:01.530Z,72.40
2023-03-12T01:39:30.005Z,73.30
2023-03-12T01:41:58.071Z,73.00
2023-03-12T01:44:26.370Z,72.70
2023-03-12T01:46:54.451Z,73.50
2023-03-12T01:49:27.329Z,73.90
2023-03-12T01:51:57.782Z,74.10
2023-03-12T01:54:28.323Z,72.90
2023-03-12T01:56:57.066Z,73.30
2023-03-12T01:59:26.401Z,73.60
2023-03-12T02:01:55.068Z,74.00
2023-03-12T02:04:25.168Z,75.60
2023-03-12T02:06:59.102Z,76.10
2023-03-12T02:09:27.397Z,77.10
2023-03-12T02:11:55.970Z,78.90
2023-03-12T02:14:24.215Z,79.40
2023-03-12T02:16:53.683Z,80.00
2023-03-12T02:19:24.798Z,79.80
2023-03-12T02:21:53.500Z,80.30
2023-03-12T02:24:27.009Z,79.90
2023-03-12T02:26:57.119Z,80.50
2023-03-12T02:29:26.350Z,79.30
2023-03-12T02:31:57.390Z,78.80
2023-03-12T02:34:25.683Z,79.60
2023-03-12T02:36:53.673Z,80.50
2023-03-12T02:39:22.395Z,81.10
2023-03-12T02:41:53.699Z,82.50
2023-03-12T02:44:25.239Z,84.30
2023-03-12T02:46:54.142Z,85.20
2023-03-12T02:49:24.897Z,86.60
2023-03-12T02:51:53.400Z,87.90
2023-03-12T02:54:22.022Z,89.50
2023-03-12T02:56:50.774Z,91.00
2023-03-12T02:59:20.782Z,91.60
2023-03-12T03:01:54.975Z,92.20
2023-03-12T03:04:24.075Z,93.10
2023-03-12T03:06:52.526Z,94.30
2023-03-12T03:09:22.440Z,95.20
2023-03-12T03:11:51.656Z,96.40
2023-03-12T03:14:21.016Z,97.20
2023-03-12T03:16:52.101Z,98.00
2023-03-12T03:19:25.092Z,98.60
2023-03-12T03:21:53.543Z,99.10
2023-03-12T03:24:22.347Z,99.90
2023-03-12T03:26:50.704Z,99.40
2023-03-12T03:29:18.986Z,99.60
2023-03-12T03:31:47.246Z,99.20
2023-03-12T03:34:15.841Z,99.50
2023-03-12T03:36:45.515Z,99.90
2023-03-12T03:39:17.227Z,99.90
2023-03-12T03:41:47.224Z,99.90
2023-03-12T03:44:19.290Z,99.90
2023-03-12T03:46:48.682Z,99.90
2023-03-12T03:49:17.701Z,99.90
2023-03-12T03:51:47.269Z,99.90
2023-03-12T03:54:20.231Z,99.90
2023-03-12T03:56:48.712Z,99.90
2023-03-12T03:59:16.928Z,99.90
2023-03-12T04:01:46.089Z,99.90
2023-03-12T04:04:14.758Z,99.90
2023-03-12T04:06:43.688Z,99.90
2023-03-12T04:09:13.306Z,99.90
2023-03-12T04:11:41.891Z,99.90
2023-03-12T04:14:20.091Z,99.90
2023-03-12T04:16:48.462Z,99.90
2023-03-12T04:19:16.770Z,99.90
2023-03-12T04:21:45.438Z,99.90
2023-03-12T04:24:16.693Z,99.90
2023-03-12T04:26:45.881Z,99.90
2023-03-12T04:29:16.278Z,99.90
2023-03-12T04:31:45.089Z,99.90
2023-03-12T04:34:14.536Z,99.90
2023-03-12T04:36:45.182Z,99.90
2023-03-12T04:39:17.567Z,99.90
2023-03-12T04:41:46.798Z,99.90
2023-03-12T04:44:16.763Z,99.90
2023-03-12T04:46:46.206Z,99.90
2023-03-12T04:49:18.314Z,99.90
2023-03-12T04:51:47.295Z,99.90
2023-03-12T04:54:17.260Z,99.90
2023-03-12T04:56:45.424Z,99.90
2023-03-12T04:59:13.825Z,99.90
2023-03-12T05:01:43.094Z,99.90
2023-03-12T05:04:18.364Z,99.90
2023-03-12T05:06:46.518Z,99.90
2023-03-12T05:09:14.828Z,99.90
2023-03-12T05:11:45.060Z,99.90
2023-03-12T05:14:18.823Z,99.90
2023-03-12T05:16:48.784Z,99.90
2023-03-12T05:19:17.465Z,99.90
2023-03-12T05:21:45.591Z,99.90
2023-03-12T05:24:14.019Z,99.90
2023-03-12T05:26:42.318Z,99.90
2023-03-12T05:29:15.483Z,99.90
2023-03-12T05:31:44.519Z,99.90
2023-03-12T05:34:13.572Z,99.90
2023-03-12T05:36:44.682Z,99.90
2023-03-12T05:39:15.598Z,99.90
2023-03-12T05:41:44.340Z,99.90
2023-03-12T05:44:18.049Z,99.90
2023-03-12T05:46:50.628Z,99.90
2023-03-12T05:49:19.172Z,99.90
2023-03-12T05:51:47.940Z,99.90
2023-03-12T05:54:16.553Z,99.90
2023-03-12T05:56:45.075Z,99.90
2023-03-12T05:59:13.280Z,99.90
2023-03-12T06:01:44.310Z,99.90
2023-03-12T06:04:13.145Z,99.90
2023-03-12T06:06:41.464Z,99.90
2023-03-12T06:09:09.655Z,99.90
2023-03-12T06:11:37.911Z,99.90
2023-03-12T06:14:06.018Z,99.90
2023-03-12T06:16:36.139Z,99.90
2023-03-12T06:19:06.622Z,99.90
2023-03-12T06:21:36.144Z,99.90
2023-03-12T06:24:06.618Z,99.90
2023-03-12T06:26:49.217Z,99.90
2023-03-12T06:29:17.299Z,99.90
2023-03-12T06:31:47.365Z,99.90
2023-03-12T06:34:17.161Z,99.90
2023-03-12T06:36:46.626Z,99.90
2023-03-12T06:39:14.784Z,99.90
2023-03-12T06:41:43.705Z,99.90
2023-03-12T06:44:11.762Z,99.90
2023-03-12T06:46:42.755Z,99.90
2023-03-12T06:49:11.199Z,99.90
2023-03-12T06:51:40.719Z,99.90
2023-03-12T06:54:08.860Z,99.90
2023-03-12T06:56:36.903Z,99.90
2023-03-12T06:59:05.370Z,99.90
2023-03-12T07:01:33.437Z,99.90
2023-03-12T07:04:01.683Z,99.90
2023-03-12T07:06:29.741Z,99.90
2023-03-12T07:08:59.500Z,99.90
2023-03-12T07:11:27.603Z,99.90
2023-03-12T07:13:56.104Z,99.90
2023-03-12T07:16:24.265Z,99.90
2023-03-12T07:18:52.811Z,99.90
2023-03-12T07:21:23.590Z,99.90
2023-03-12T07:23:52.615Z,99.90
2023-03-12T07:26:22.166Z,99.90
2023-03-12T07:28:50.451Z,99.90
2023-03-12T07:31:18.469Z,99.90
2023-03-12T07:33:46.769Z,99.90
2023-03-12T07:36:15.430Z,99.90
2023-03-12T07:38:43.571Z,99.90
2023-03-12T07:41:12.087Z,99.90
2023-03-12T07:43:42.121Z,99.90
2023-03-12T07:46:10.583Z,99.90
2023-03-12T07:48:38.719Z,99.90
2023-03-12T07:51:08.003Z,99.90
2023-03-12T07:53:36.836Z,99.90
2023-03-12T07:56:05.909Z,99.90
2023-03-12T07:58:36.457Z,99.90
2023-03-12T08:01:06.694Z,99.90
2023-03-12T08:03:34.995Z,99.90
2023-03-12T08:06:05.502Z,99.90
2023-03-12T08:08:33.841Z,99.90
2023-03-12T08:11:02.748Z,99.90
2023-03-12T08:13:30.845Z,99.90
2023-03-12T08:15:59.566Z,99.90
2023-03-12T08:18:29.005Z,99.90
2023-03-12T08:20:57.564Z,99.90
2023-03-12T08:23:26.524Z,99.90
2023-03-12T08:25:55.400Z,99.90
2023-03-12T08:28:24.913Z,99.90
2023-03-12T08:30:54.209Z,99.90
2023-03-12T08:33:22.899Z,99.90
2023-03-12T08:35:52.719Z,99.90
2023-03-12T08:38:21.200Z,99.90
2023-03-12T08:40:55.337Z,99.90
2023-03-12T08:43:23.391Z,99.90
2023-03-12T08:45:54.763Z,99.90
2023-03-12T08:48:22.907Z,99.90
2023-03-12T08:50:52.664Z,99.90
2023-03-12T08:53:20.837Z,99.90
2023-03-12T08:55:49.225Z,99.90
2023-03-12T08:58:17.367Z,99.90
2023-03-12T09:00:45.887Z,99.90
2023-03-12T09:03:15.093Z,99.90
2023-03-12T09:05:45.823Z,99.90
2023-03-12T09:08:15.341Z,99.90
2023-03-12T09:10:49.414Z,99.90
2023-03-12T09:13:17.502Z,99.90
2023-03-12T09:15:46.061Z,99.90
2023-03-12T09:18:14.215Z,99.90
2023-03-12T09:20:43.240Z,99.90
2023-03-12T09:23:12.262Z,99.90
2023-03-12T09:25:41.647Z,99.90
2023-03-12T09:28:11.835Z,99.90
2023-03-12T09:30:39.942Z,99.90
2023-03-12T09:33:10.510Z,99.90
2023-03-12T09:35:38.755Z,99.90
2023-03-12T09:38:07.512Z,99.90
2023-03-12T09:40:39.867Z,99.90
2023-03-12T09:43:12.143Z,99.90
2023-03-12T09:45:43.145Z,99.90
2023-03-12T09:48:15.373Z,99.90
2023-03-12T09:50:44.501Z,99.90
2023-03-12T09:53:15.016Z,99.90
2023-03-12T09:55:44.274Z,99.90
2023-03-12T09:58:15.986Z,99.90
2023-03-12T10:00:46.432Z,99.90
2023-03-12T10:03:21.516Z,99.90
2023-03-12T10:05:57.080Z,99.90
2023-03-12T10:08:31.428Z,99.90
2023-03-12T10:11:03.407Z,99.90
2023-03-12T10:13:39.939Z,99.90
2023-03-12T10:16:12.823Z,99.90
2023-03-12T10:18:51.050Z,99.90
2023-03-12T10:21:23.212Z,99.90
2023-03-12T10:23:55.686Z,99.90
2023-03-12T10:26:25.597Z,99.90
2023-03-12T10:28:59.252Z,99.90
2023-03-12T10:31:29.009Z,99.90
2023-03-12T10:33:59.216Z,99.90
2023-03-12T10:36:29.593Z,99.90
2023-03-12T10:38:58.120Z,99.90
2023-03-12T10:41:29.806Z,99.90
2023-03-12T10:44:03.072Z,99.90
2023-03-12T10:46:39.996Z,99.90
2023-03-12T10:49:25.370Z,99.90
2023-03-12T10:51:57.912Z,99.90
2023-03-12T10:54:29.611Z,99.90
2023-03-12T10:56:57.681Z,99.90
2023-03-12T10:59:29.405Z,99.90
2023-03-12T11:01:58.178Z,99.90
2023-03-12T11:04:30.077Z,99.90
2023-03-12T11:07:08.886Z,99.90
2023-03-12T11:09:36.951Z,99.90
2023-03-12T11:12:23.436Z,99.90
2023-03-12T11:14:52.995Z,99.90
2023-03-12T11:17:22.235Z,99.90
2023-03-12T11:19:50.351Z,99.90
2023-03-12T11:22:29.242Z,99.90
2023-03-12T11:24:58.031Z,99.90
2023-03-12T11:27:31.548Z,99.90
2023-03-12T11:30:01.381Z,99.90
2023-03-12T11:32:33.521Z,99.90
2023-03-12T11:35:02.158Z,99.90
2023-03-12T11:37:40.284Z,99.90
2023-03-12T11:40:17.031Z,99.90
2023-03-12T11:42:52.081Z,99.90
2023-03-12T11:45:26.130Z,99.90
2023-03-12T11:48:00.860Z,99.90
2023-03-12T11:50:38.808Z,99.90
2023-03-12T11:53:17.276Z,99.90
2023-03-12T11:55:56.597Z,99.90
2023-03-12T11:58:31.529Z,99.90
2023-03-12T12:01:07.095Z,99.90
2023-03-12T12:03:50.214Z,99.90
2023-03-12T12:06:22.726Z,99.90
2023-03-12T12:09:08.010Z,99.90
2023-03-12T12:11:42.191Z,99.90
2023-03-12T12:14:16.375Z,99.90
2023-03-12T12:16:55.940Z,99.90
2023-03-12T12:19:28.040Z,99.90
2023-03-12T12:22:05.090Z,99.90
2023-03-12T12:24:38.820Z,99.90
2023-03-12T12:27:13.339Z,99.90
2023-03-12T12:29:50.027Z,99.90
2023-03-12T12:32:22.344Z,99.90
2023-03-12T12:34:58.226Z,99.90
2023-03-12T12:37:32.170Z,99.90
2023-03-12T12:40:08.665Z,99.90
2023-03-12T12:42:41.152Z,99.90
2023-03-12T12:45:14.519Z,99.90
2023-03-12T12:47:47.292Z,99.90
2023-03-12T12:50:18.316Z,99.90
2023-03-12T12:52:49.997Z,99.90
2023-03-12T12:55:20.804Z,99.90
2023-03-12T12:57:52.394Z,99.90
2023-03-12T13:00:25.061Z,99.90
2023-03-12T13:02:56.430Z,99.90
2023-03-12T13:05:27.705Z,99.90
2023-03-12T13:07:56.166Z,99.90
2023-03-12T13:10:53.082Z,99.90
2023-03-12T13:13:27.476Z,99.90
2023-03-12T13:16:10.981Z,99.90
2023-03-12T13:18:40.778Z,99.90
2023-03-12T13:21:16.505Z,99.90
2023-03-12T13:23:51.616Z,99.90
2023-03-12T13:26:23.784Z,99.90
2023-03-12T13:29:11.911Z,99.90
2023-03-12T13:31:42.441Z,99.90
2023-03-12T13:34:29.144Z,99.90
2023-03-12T13:37:00.616Z,99.90
2023-03-12T13:39:33.262Z,99.90
2023-03-12T13:42:02.753Z,99.90
2023-03-12T13:44:33.069Z,99.90
2023-03-12T13:47:02.449Z,99.90
2023-03-12T13:49:35.752Z,99.90
2023-03-12T13:52:25.309Z,99.90
2023-03-12T13:55:00.764Z,99.90
2023-03-12T13:57:36.808Z,99.90
2023-03-12T14:00:12.154Z,99.90
2023-03-12T14:02:45.286Z,99.90
2023-03-12T14:05:14.857Z,99.90
2023-03-12T14:08:01.975Z,99.90
2023-03-12T14:10:34.246Z,99.90
2023-03-12T14:13:09.134Z,99.90
2023-03-12T14:15:40.554Z,99.90
2023-03-12T14:18:12.773Z,99.90
2023-03-12T14:20:41.798Z,99.90
2023-03-12T14:23:12.926Z,99.90
2023-03-12T14:25:44.241Z,99.90
2023-03-12T14:28:36.793Z,99.90
2023-03-12T14:31:07.541Z,99.90
2023-03-12T14:33:37.369Z,99.90
2023-03-12T14:36:07.476Z,99.90
2023-03-12T14:38:37.498Z,99.90
2023-03-12T14:41:13.365Z,99.90
2023-03-12T14:43:42.391Z,99.90
2023-03-12T14:46:15.312Z,99.90
2023-03-12T14:48:43.546Z,99.90
2023-03-12T14:51:21.080Z,99.90
2023-03-12T14:53:51.403Z,99.90
2023-03-12T14:56:27.856Z,99.90
2023-03-12T14:58:56.215Z,99.90
2023-03-12T15:01:25.255Z,99.90
2023-03-12T15:03:55.098Z,99.90
2023-03-12T15:06:28.115Z,99.90
2023-03-12T15:08:56.334Z,99.90
2023-03-12T15:11:27.125Z,99.90
2023-03-12T15:13:55.963Z,99.90
2023-03-12T15:16:24.781Z,99.90
2023-03-12T15:18:53.373Z,99.90
2023-03-12T15:21:21.886Z,99.90
2023-03-12T15:23:51.559Z,99.90
2023-03-12T15:26:29.751Z,99.90
2023-03-12T15:28:58.845Z,99.90
2023-03-12T15:31:27.028Z,99.90
2023-03-12T15:34:02.123Z,99.90
2023-03-12T15:36:31.200Z,99.90
2023-03-12T15:39:01.261Z,99.90
2023-03-12T15:41:34.690Z,99.90
2023-03-12T15:44:02.953Z,99.90
2023-03-12T15:46:31.231Z,99.90
2023-03-12T15:49:00.583Z,99.90
2023-03-12T15:51:30.469Z,99.90
2023-03-12T15:54:02.438Z,99.90
2023-03-12T15:56:33.204Z,99.90
2023-03-12T15:59:02.494Z,99.90
2023-03-12T16:01:30.688Z,99.90
2023-03-12T16:03:59.687Z,99.90
2023-03-12T16:06:29.932Z,99.90
2023-03-12T16:09:00.145Z,99.90
2023-03-12T16:11:30.698Z,99.90
2023-03-12T16:14:03.749Z,99.90
2023-03-12T16:16:31.891Z,99.90
2023-03-12T16:19:00.064Z,99.90
2023-03-12T16:21:28.154Z,99.90
2023-03-12T16:23:56.199Z,99.90
2023-03-12T16:26:24.298Z,99.90
2023-03-12T16:28:52.436Z,99.90
2023-03-12T16:31:21.927Z,99.90
2023-03-12T16:33:50.124Z,99.90
2023-03-12T16:36:19.238Z,99.90
2023-03-12T16:38:47.417Z,99.90
2023-03-12T16:41:17.186Z,99.90
2023-03-12T16:43:47.190Z,99.90
2023-03-12T16:46:16.451Z,99.90
2023-03-12T16:48:51.173Z,99.90
2023-03-12T16:51:19.345Z,99.90
2023-03-12T16:53:53.145Z,99.90
2023-03-12T16:56:27.863Z,99.90
2023-03-12T16:58:56.397Z,99.90
2023-03-12T17:01:26.679Z,99.90
2023-03-12T17:03:56.543Z,99.90
2023-03-12T17:06:25.520Z,99.90
2023-03-12T17:08:55.320Z,99.90
2023-03-12T17:11:24.591Z,99.90
2023-03-12T17:13:53.939Z,99.90
2023-03-12T17:16:22.343Z,99.90
2023-03-12T17:18:51.144Z,99.90
2023-03-12T17:21:24.380Z,99.90
2023-03-12T17:23:53.212Z,99.90
2023-03-12T17:26:21.433Z,99.90
2023-03-12T17:28:49.756Z,99.90
2023-03-12T17:31:17.910Z,99.90
2023-03-12T17:33:46.051Z,99.90
2023-03-12T17:36:14.127Z,99.90
2023-03-12T17:38:43.478Z,99.90
2023-03-12T17:41:25.388Z,99.90
2023-03-12T17:43:54.622Z,99.90
2023-03-12T17:46:23.111Z,99.90
2023-03-12T17:48:51.268Z,99.90
2023-03-12T17:51:20.932Z,99.90
2023-03-12T17:53:50.427Z,99.90
2023-03-12T17:56:19.329Z,99.90
2023-03-12T17:58:47.721Z,99.90
2023-03-12T18:01:16.563Z,99.90
2023-03-12T18:03:44.614Z,99.90
2023-03-12T18:06:12.960Z,99.90
2023-03-12T18:08:41.030Z,99.90
2023-03-12T18:11:10.504Z,99.90
2023-03-12T18:13:40.828Z,99.90
2023-03-12T18:16:09.264Z,99.90
2023-03-12T18:18:37.349Z,99.90
2023-03-12T18:21:05.558Z,99.90
2023-03-12T18:23:33.604Z,99.90
2023-03-12T18:26:01.661Z,99.90
2023-03-12T18:28:31.006Z,99.90
2023-03-12T18:30:59.068Z,99.90
2023-03-12T18:33:27.191Z,99.90
2023-03-12T18:35:55.282Z,99.90
2023-03-12T18:38:23.398Z,99.90
2023-03-12T18:40:51.541Z,99.90
2023-03-12T18:43:21.717Z,99.90
2023-03-12T18:45:51.362Z,99.90
2023-03-12T18:48:19.414Z,99.90
2023-03-12T18:50:47.539Z,99.90
2023-03-12T18:53:15.764Z,99.90
2023-03-12T18:55:50.866Z,99.90
2023-03-12T18:58:19.237Z,99.90
2023-03-12T19:00:47.614Z,99.90
2023-03-12T19:03:17.197Z,99.90
2023-03-12T19:05:45.260Z,99.90
2023-03-12T19:08:13.630Z,99.90
2023-03-12T19:10:41.989Z,99.90
2023-03-12T19:13:10.226Z,99.90
2023-03-12T19:15:38.814Z,99.90
2023-03-12T19:18:06.978Z,99.90
2023-03-12T19:20:37.638Z,99.90
2023-03-12T19:23:05.726Z,99.90
2023-03-12T19:25:33.880Z,99.90
2023-03-12T19:28:01.932Z,99.90
2023-03-12T19:30:33.759Z,99.90
2023-03-12T19:33:02.014Z,99.90
2023-03-12T19:35:30.473Z,99.90
2023-03-12T19:38:01.891Z,99.90
2023-03-12T19:40:30.424Z,99.90
2023-03-12T19:42:58.492Z,99.90
2023-03-12T19:45:27.129Z,99.90
2023-03-12T19:47:55.648Z,99.90
2023-03-12T19:50:24.992Z,99.90
2023-03-12T19:52:53.356Z,99.90
2023-03-12T19:55:22.790Z,99.90
2023-03-12T19:57:51.506Z,99.90
2023-03-12T20:00:19.795Z,99.90
2023-03-12T20:02:49.379Z,99.90
2023-03-12T20:05:17.754Z,99.90
2023-03-12T20:07:46.753Z,99.90
2023-03-12T20:10:14.728Z,99.90
2023-03-12T20:12:47.132Z,99.90
2023-03-12T20:15:15.181Z,99.90
2023-03-12T20:17:43.250Z,99.90
2023-03-12T20:20:12.770Z,99.90
2023-03-12T20:22:40.838Z,99.90
2023-03-12T20:25:10.417Z,99.90
2023-03-12T20:27:38.539Z,99.90
2023-03-12T20:30:09.076Z,99.90
2023-03-12T20:32:37.188Z,99.90
2023-03-12T20:35:06.740Z,99.90
2023-03-12T20:37:34.844Z,99.90
2023-03-12T20:40:05.771Z,99.90
2023-03-12T20:42:33.876Z,99.90
2023-03-12T20:45:02.867Z,99.90
2023-03-12T20:47:34.578Z,99.90
2023-03-12T20:50:03.970Z,99.90
2023-03-12T20:52:31.996Z,99.90
2023-03-12T20:55:00.260Z,99.90
2023-03-12T20:57:29.036Z,99.90
2023-03-12T20:59:57.080Z,99.90
2023-03-12T21:02:26.198Z,99.90
2023-03-12T21:04:55.663Z,99.90
2023-03-12T21:10:13.811Z,99.90
2023-03-12T21:12:42.117Z,99.90
2023-03-12T21:15:12.345Z,99.90
2023-03-12T21:17:41.041Z,99.90
2023-03-12T21:20:12.838Z,99.90
2023-03-12T21:22:43.587Z,99.90
2023-03-12T21:25:11.710Z,99.90
2023-03-12T21:27:50.558Z,99.90
2023-03-12T21:30:21.191Z,99.90
2023-03-12T21:32:50.539Z,99.90
2023-03-12T21:35:20.562Z,99.90
2023-03-12T21:37:49.390Z,99.90
2023-03-12T21:40:17.767Z,99.90
2023-03-12T21:42:45.988Z,99.90
2023-03-12T21:45:14.036Z,99.90
2023-03-12T21:47:42.257Z,99.90
2023-03-12T21:50:11.440Z,99.90
2023-03-12T21:52:43.697Z,99.90
2023-03-12T21:55:12.301Z,99.90
2023-03-12T21:57:40.356Z,99.90
2023-03-12T22:00:14.309Z,99.90
2023-03-12T22:02:42.757Z,99.90
2023-03-12T22:05:11.609Z,99.90
2023-03-12T22:07:41.235Z,99.90
2023-03-12T22:10:11.911Z,99.90
2023-03-12T22:12:40.469Z,99.90
2023-03-12T22:15:09.330Z,99.90
2023-03-12T22:17:37.434Z,99.90
2023-03-12T22:20:08.196Z,99.90
2023-03-12T22:22:36.271Z,99.90
2023-03-12T22:25:06.953Z,99.90
2023-03-12T22:27:35.038Z,99.90
2023-03-12T22:30:03.728Z,99.90
2023-03-12T22:32:32.414Z,99.90
2023-03-12T22:35:01.803Z,99.90
2023-03-12T22:37:31.571Z,99.90
2023-03-12T22:40:01.571Z,99.90
2023-03-12T22:42:33.006Z,99.90
2023-03-12T22:45:01.055Z,99.90
2023-03-12T22:47:29.677Z,99.90
2023-03-12T22:49:58.405Z,99.90
2023-03-12T22:52:26.820Z,99.90
2023-03-12T22:54:55.196Z,99.90
2023-03-12T22:57:23.745Z,99.90
2023-03-12T22:59:53.208Z,99.90
2023-03-12T23:02:21.409Z,99.90
2023-03-12T23:04:49.489Z,99.90
2023-03-12T23:07:18.269Z,99.90
2023-03-12T23:09:47.985Z,99.90
2023-03-12T23:12:16.450Z,99.90
2023-03-12T23:14:44.693Z,99.90
2023-03-12T23:17:14.079Z,99.90
2023-03-12T23:19:43.642Z,99.90
2023-03-12T23:22:12.343Z,99.90
2023-03-12T23:24:40.440Z,99.90
2023-03-12T23:27:08.614Z,99.90
2023-03-12T23:29:37.121Z,99.90
2023-03-12T23:32:05.512Z,99.90
2023-03-12T23:34:35.514Z,99.90
2023-03-12T23:37:03.820Z,99.90
2023-03-12T23:39:35.331Z,99.90
2023-03-12T23:42:08.156Z,99.90
2023-03-12T23:44:36.233Z,99.90
2023-03-12T23:47:04.269Z,99.90
2023-03-12T23:49:32.803Z,99.90
2023-03-12T23:52:02.277Z,99.90
2023-03-12T23:54:30.341Z,99.90
2023-03-12T23:56:58.980Z,99.90
2023-03-12T23:59:27.010Z,99.90
